createdAt,value
2022-12-13T00:01:22.668Z,-5.57
2022-12-13T00:06:19.440Z,-5.68
2022-12-13T00:11:16.316Z,-5.67
2022-12-13T00:16:15.883Z,-5.70
2022-12-13T00:21:14.676Z,-5.79
2022-12-13T00:26:15.174Z,-5.87
2022-12-13T00:31:51.760Z,-5.95
2022-12-13T00:36:28.067Z,-5.87
2022-12-13T00:41:24.440Z,-6.01
2022-12-13T00:46:23.859Z,-5.92
2022-12-13T00:51:24.429Z,-6.00
2022-12-13T00:56:25.400Z,-6.01
2022-12-13T01:01:25.294Z,-5.92
2022-12-13T01:06:34.054Z,-5.94
2022-12-13T01:11:30.831Z,-6.14
2022-12-13T01:16:27.291Z,-6.24
2022-12-13T01:21:23.674Z,-6.23
2022-12-13T01:26:21.776Z,-6.13
2022-12-13T01:31:20.308Z,-6.22
2022-12-13T01:36:27.901Z,-6.29
2022-12-13T01:41:28.133Z,-6.34
2022-12-13T01:46:24.661Z,-6.52
2022-12-13T01:51:27.540Z,-6.64
2022-12-13T01:56:31.334Z,-6.64
2022-12-13T02:01:28.204Z,-6.42
2022-12-13T02:06:33.753Z,-6.33
2022-12-13T02:11:30.417Z,-6.36
2022-12-13T02:16:58.061Z,-6.41
2022-12-13T02:22:00.213Z,-6.77
2022-12-13T02:27:18.004Z,-6.68
2022-12-13T02:32:34.109Z,-6.61
2022-12-13T02:37:51.795Z,-6.47
2022-12-13T02:42:58.014Z,-6.57
2022-12-13T02:47:57.205Z,-6.77
2022-12-13T02:52:54.990Z,-7.00
2022-12-13T02:57:51.447Z,-6.88
2022-12-13T03:03:06.825Z,-6.69
2022-12-13T03:08:21.638Z,-6.80
2022-12-13T03:13:40.759Z,-6.89
2022-12-13T03:18:39.701Z,-6.99
2022-12-13T03:23:36.791Z,-7.26
2022-12-13T03:28:33.173Z,-7.18
2022-12-13T03:33:29.585Z,-7.18
2022-12-13T03:38:26.221Z,-7.17
2022-12-13T03:43:23.533Z,-7.23
2022-12-13T03:48:22.115Z,-7.25
2022-12-13T03:53:22.188Z,-7.48
2022-12-13T03:58:36.245Z,-7.40
2022-12-13T04:03:34.398Z,-7.26
2022-12-13T04:08:31.064Z,-7.49
2022-12-13T04:13:33.495Z,-7.56
2022-12-13T04:18:29.909Z,-7.35
2022-12-13T04:23:26.764Z,-7.37
2022-12-13T04:28:23.350Z,-7.42
2022-12-13T04:33:21.048Z,-7.60
2022-12-13T04:38:17.997Z,-7.74
2022-12-13T04:43:14.424Z,-7.70
2022-12-13T04:48:10.756Z,-7.79
2022-12-13T04:53:07.053Z,-7.67
2022-12-13T04:58:03.460Z,-7.64
2022-12-13T05:02:59.975Z,-7.80
2022-12-13T05:07:56.601Z,-7.80
2022-12-13T05:12:53.019Z,-7.71
2022-12-13T05:17:49.366Z,-7.78
2022-12-13T05:22:45.836Z,-7.96
2022-12-13T05:27:42.195Z,-7.88
2022-12-13T05:32:43.544Z,-7.93
2022-12-13T05:37:40.671Z,-8.07
2022-12-13T05:42:38.703Z,-8.19
2022-12-13T05:47:35.115Z,-8.13
2022-12-13T05:52:31.501Z,-8.03
2022-12-13T05:57:28.099Z,-7.98
2022-12-13T06:02:24.465Z,-8.03
2022-12-13T06:07:20.967Z,-7.90
2022-12-13T06:12:30.949Z,-7.95
2022-12-13T06:17:33.206Z,-7.89
2022-12-13T06:22:29.565Z,-7.96
2022-12-13T06:27:25.864Z,-7.93
2022-12-13T06:32:22.236Z,-7.86
2022-12-13T06:37:18.791Z,-7.94
2022-12-13T06:42:21.473Z,-7.97
2022-12-13T06:47:30.922Z,-7.99
2022-12-13T06:52:28.613Z,-8.07
2022-12-13T06:57:24.929Z,-8.01
2022-12-13T07:02:25.750Z,-7.95
2022-12-13T07:07:24.944Z,-7.98
2022-12-13T07:12:21.270Z,-8.14
2022-12-13T07:17:31.991Z,-7.95
2022-12-13T07:22:34.594Z,-8.10
2022-12-13T07:27:32.607Z,-8.25
2022-12-13T07:32:29.075Z,-8.18
2022-12-13T07:37:29.955Z,-7.92
2022-12-13T07:42:27.103Z,-7.94
2022-12-13T07:47:23.470Z,-8.02
2022-12-13T07:52:19.843Z,-8.18
2022-12-13T07:57:16.261Z,-7.89
2022-12-13T08:02:13.517Z,-7.92
2022-12-13T08:07:10.512Z,-7.96
2022-12-13T08:12:07.085Z,-7.77
2022-12-13T08:17:03.692Z,-7.72
2022-12-13T08:22:01.626Z,-7.51
2022-12-13T08:27:02.325Z,-7.39
2022-12-13T08:31:58.943Z,-7.18
2022-12-13T08:37:01.768Z,-6.92
2022-12-13T08:41:59.437Z,-6.78
2022-12-13T08:47:12.208Z,-6.68
2022-12-13T08:52:22.514Z,-6.40
2022-12-13T08:57:19.065Z,-6.30
2022-12-13T09:02:16.563Z,-6.05
2022-12-13T09:07:13.517Z,-5.86
2022-12-13T09:12:10.495Z,-5.59
2022-12-13T09:17:23.657Z,-5.41
2022-12-13T09:22:34.014Z,-5.15
2022-12-13T09:27:39.943Z,-4.92
2022-12-13T09:32:36.511Z,-4.71
2022-12-13T09:37:32.939Z,-4.46
2022-12-13T09:42:31.247Z,-4.26
2022-12-13T09:47:35.894Z,-4.15
2022-12-13T09:52:38.424Z,-4.02
2022-12-13T09:57:34.788Z,-3.86
2022-12-13T10:02:34.471Z,-3.64
2022-12-13T10:07:30.958Z,-3.47
2022-12-13T10:12:28.560Z,-3.37
2022-12-13T10:17:38.204Z,-3.23
2022-12-13T10:22:35.919Z,-3.15
2022-12-13T10:27:42.000Z,-2.99
2022-12-13T10:32:50.480Z,-2.87
2022-12-13T10:37:46.876Z,-2.71
2022-12-13T10:42:43.387Z,-2.60
2022-12-13T10:47:43.212Z,-2.52
2022-12-13T10:52:47.885Z,-2.39
2022-12-13T10:57:52.189Z,-2.32
2022-12-13T11:02:54.676Z,-2.16
2022-12-13T11:07:51.319Z,-2.10
2022-12-13T11:12:49.641Z,-1.90
2022-12-13T11:17:51.998Z,-1.84
2022-12-13T11:22:49.397Z,-1.76
2022-12-13T11:28:26.652Z,-1.62
2022-12-13T11:33:47.738Z,-1.51
2022-12-13T11:39:07.084Z,-1.37
2022-12-13T11:44:08.470Z,-1.25
2022-12-13T11:49:16.507Z,-1.07
2022-12-13T11:54:46.768Z,-0.84
2022-12-13T11:59:50.950Z,-0.85
2022-12-13T12:05:00.503Z,-0.92
2022-12-13T12:10:03.058Z,-0.85
2022-12-13T12:15:15.466Z,-0.94
2022-12-13T12:20:23.932Z,-1.07
2022-12-13T12:25:32.777Z,-1.21
2022-12-13T12:30:55.359Z,-1.41
2022-12-13T12:36:19.912Z,-1.38
2022-12-13T12:41:22.297Z,-1.38
2022-12-13T12:47:08.869Z,-1.48
2022-12-13T12:52:32.391Z,-1.41
2022-12-13T12:58:03.756Z,-1.45
2022-12-13T13:03:23.252Z,-1.47
2022-12-13T13:08:55.679Z,-1.42
2022-12-13T13:14:01.286Z,-1.52
2022-12-13T13:19:25.547Z,-1.52
2022-12-13T13:24:25.630Z,-1.54
2022-12-13T13:29:27.371Z,-1.56
2022-12-13T13:34:27.368Z,-1.51
2022-12-13T13:39:26.469Z,-1.52
2022-12-13T13:44:53.207Z,-1.54
2022-12-13T13:50:01.558Z,-1.33
2022-12-13T13:55:13.580Z,-1.45
2022-12-13T14:00:47.481Z,-1.49
2022-12-13T14:05:52.083Z,-1.51
2022-12-13T14:11:07.120Z,-1.72
2022-12-13T14:16:27.980Z,-1.73
2022-12-13T14:21:30.476Z,-1.83
2022-12-13T14:27:04.578Z,-1.94
2022-12-13T14:32:01.875Z,-2.03
2022-12-13T14:37:04.989Z,-2.04
2022-12-13T14:42:18.195Z,-2.32
2022-12-13T14:47:14.850Z,-2.53
2022-12-13T14:52:26.659Z,-2.74
2022-12-13T14:57:27.017Z,-3.07
2022-12-13T15:02:30.993Z,-3.33
2022-12-13T15:07:35.842Z,-3.57
2022-12-13T15:12:32.325Z,-3.73
2022-12-13T15:17:35.309Z,-3.70
2022-12-13T15:22:31.675Z,-3.83
2022-12-13T15:27:28.244Z,-3.99
2022-12-13T15:32:24.625Z,-4.16
2022-12-13T15:37:30.399Z,-4.25
2022-12-13T15:42:38.769Z,-4.40
2022-12-13T15:47:35.187Z,-4.36
2022-12-13T15:52:40.067Z,-4.43
2022-12-13T15:57:50.179Z,-4.60
2022-12-13T16:03:00.229Z,-4.79
2022-12-13T16:08:14.439Z,-4.89
2022-12-13T16:13:26.200Z,-5.00
2022-12-13T16:18:42.623Z,-5.13
2022-12-13T16:23:39.111Z,-5.25
2022-12-13T16:28:35.519Z,-5.28
2022-12-13T16:33:32.244Z,-5.26
2022-12-13T16:38:28.832Z,-5.23
2022-12-13T16:43:33.479Z,-5.32
2022-12-13T16:48:31.203Z,-5.44
2022-12-13T16:53:28.299Z,-5.53
2022-12-13T16:58:25.944Z,-5.56
2022-12-13T17:03:23.544Z,-5.60
2022-12-13T17:08:20.258Z,-5.53
2022-12-13T17:13:16.618Z,-5.55
2022-12-13T17:18:13.036Z,-5.44
2022-12-13T17:23:14.680Z,-5.57
2022-12-13T17:28:14.165Z,-5.58
2022-12-13T17:33:13.165Z,-5.70
2022-12-13T17:38:09.506Z,-5.62
2022-12-13T17:43:05.948Z,-5.67
2022-12-13T17:48:02.352Z,-5.75
2022-12-13T17:52:58.715Z,-5.63
2022-12-13T17:57:57.492Z,-5.63
2022-12-13T18:02:57.720Z,-5.76
2022-12-13T18:07:54.175Z,-5.83
2022-12-13T18:12:50.518Z,-5.69
2022-12-13T18:18:10.764Z,-5.67
2022-12-13T18:23:03.660Z,-5.58
2022-12-13T18:28:01.243Z,-5.64
2022-12-13T18:32:58.722Z,-5.58
2022-12-13T18:37:55.067Z,-5.45
2022-12-13T18:42:51.665Z,-5.44
2022-12-13T18:47:48.051Z,-5.55
2022-12-13T18:52:44.708Z,-5.78
2022-12-13T18:57:41.068Z,-5.87
2022-12-13T19:02:38.339Z,-5.89
2022-12-13T19:07:35.776Z,-5.97
2022-12-13T19:12:32.164Z,-5.72
2022-12-13T19:17:28.826Z,-5.70
2022-12-13T19:22:25.183Z,-5.70
2022-12-13T19:27:21.872Z,-5.67
2022-12-13T19:32:18.784Z,-5.68
2022-12-13T19:37:15.911Z,-5.87
2022-12-13T19:42:12.313Z,-5.97
2022-12-13T19:47:10.867Z,-6.02
2022-12-13T19:52:07.224Z,-6.01
2022-12-13T19:57:07.353Z,-6.00
2022-12-13T20:02:05.589Z,-5.87
2022-12-13T20:07:02.021Z,-5.75
2022-12-13T20:11:58.859Z,-5.75
2022-12-13T20:16:55.215Z,-5.76
2022-12-13T20:21:56.689Z,-5.87
2022-12-13T20:26:53.556Z,-5.88
2022-12-13T20:31:51.134Z,-5.83
2022-12-13T20:36:50.057Z,-5.85
2022-12-13T20:41:46.672Z,-5.89
2022-12-13T20:46:43.140Z,-5.89
2022-12-13T20:51:41.157Z,-5.91
2022-12-13T20:56:38.440Z,-5.88
2022-12-13T21:01:38.334Z,-5.96
2022-12-13T21:06:36.513Z,-5.92
2022-12-13T21:11:38.788Z,-5.74
2022-12-13T21:16:43.773Z,-5.63
2022-12-13T21:21:40.478Z,-5.75
2022-12-13T21:26:36.900Z,-5.85
2022-12-13T21:31:34.690Z,-5.86
2022-12-13T21:36:33.607Z,-5.76
2022-12-13T21:41:30.017Z,-5.63
2022-12-13T21:46:47.481Z,-5.68
2022-12-13T21:51:47.819Z,-5.67
2022-12-13T21:57:02.952Z,-5.68
2022-12-13T22:02:20.289Z,-5.79
2022-12-13T22:07:25.842Z,-5.79
2022-12-13T22:12:36.100Z,-5.75
2022-12-13T22:17:35.784Z,-5.75
2022-12-13T22:22:32.629Z,-5.64
2022-12-13T22:27:29.005Z,-5.61
2022-12-13T22:32:27.416Z,-5.55
2022-12-13T22:37:24.671Z,-5.53
2022-12-13T22:42:21.069Z,-5.54
2022-12-13T22:47:17.477Z,-5.48
2022-12-13T22:52:13.820Z,-5.36
2022-12-13T22:57:10.195Z,-5.35
2022-12-13T23:02:06.646Z,-5.39
2022-12-13T23:07:03.588Z,-5.33
2022-12-13T23:12:18.376Z,-5.31
2022-12-13T23:17:14.738Z,-5.21
2022-12-13T23:22:11.113Z,-5.30
2022-12-13T23:27:07.579Z,-5.26
2022-12-13T23:32:04.469Z,-5.26
2022-12-13T23:37:00.898Z,-5.31
2022-12-13T23:41:57.239Z,-5.29
2022-12-13T23:46:53.759Z,-5.32
2022-12-13T23:51:50.114Z,-5.35
2022-12-13T23:56:47.383Z,-5.37
